sensor_id;sensor_type;location;lat;lon;timestamp;temperature;humidity
73277;DHT22;61501;43.316;5.372;2023-01-16T00:01:01;7.90;99.90
73277;DHT22;61501;43.316;5.372;2023-01-16T00:03:26;7.90;99.90
73277;DHT22;61501;43.316;5.372;2023-01-16T00:05:52;7.80;99.90
73277;DHT22;61501;43.316;5.372;2023-01-16T00:08:18;7.80;99.90
73277;DHT22;61501;43.316;5.372;2023-01-16T00:10:44;7.80;99.90
73277;DHT22;61501;43.316;5.372;2023-01-16T00:13:11;7.80;99.90
73277;DHT22;61501;43.316;5.372;2023-01-16T00:15:37;7.80;99.90
73277;DHT22;61501;43.316;5.372;2023-01-16T00:18:03;7.70;99.90
73277;DHT22;61501;43.316;5.372;2023-01-16T00:20:29;7.70;99.90
73277;DHT22;61501;43.316;5.372;2023-01-16T00:22:55;7.70;99.90
73277;DHT22;61501;43.316;5.372;2023-01-16T00:25:21;7.60;99.90
73277;DHT22;61501;43.316;5.372;2023-01-16T00:27:46;7.60;99.90
73277;DHT22;61501;43.316;5.372;2023-01-16T00:30:12;7.60;99.90
73277;DHT22;61501;43.316;5.372;2023-01-16T00:32:38;7.60;99.90
73277;DHT22;61501;43.316;5.372;2023-01-16T00:35:04;7.40;99.90
73277;DHT22;61501;43.316;5.372;2023-01-16T00:37:30;7.40;99.90
73277;DHT22;61501;43.316;5.372;2023-01-16T00:39:55;7.40;99.90
73277;DHT22;61501;43.316;5.372;2023-01-16T00:42:27;7.40;99.90
73277;DHT22;61501;43.316;5.372;2023-01-16T00:44:53;7.40;99.90
73277;DHT22;61501;43.316;5.372;2023-01-16T00:47:18;7.50;99.90
73277;DHT22;61501;43.316;5.372;2023-01-16T00:49:44;7.50;99.90
73277;DHT22;61501;43.316;5.372;2023-01-16T00:52:10;7.50;99.90
73277;DHT22;61501;43.316;5.372;2023-01-16T00:54:36;7.50;99.90
73277;DHT22;61501;43.316;5.372;2023-01-16T00:57:01;7.40;99.90
73277;DHT22;61501;43.316;5.372;2023-01-16T00:59:27;7.40;99.90
73277;DHT22;61501;43.316;5.372;2023-01-16T01:01:52;7.40;99.90
73277;DHT22;61501;43.316;5.372;2023-01-16T01:04:18;7.50;99.90
73277;DHT22;61501;43.316;5.372;2023-01-16T01:06:44;7.40;99.90
73277;DHT22;61501;43.316;5.372;2023-01-16T01:09:09;7.40;99.90
73277;DHT22;61501;43.316;5.372;2023-01-16T01:11:35;7.30;99.90
73277;DHT22;61501;43.316;5.372;2023-01-16T01:14:01;7.30;99.90
73277;DHT22;61501;43.316;5.372;2023-01-16T01:16:26;7.40;99.90
73277;DHT22;61501;43.316;5.372;2023-01-16T01:18:52;7.40;99.90
73277;DHT22;61501;43.316;5.372;2023-01-16T01:21:18;7.40;99.90
73277;DHT22;61501;43.316;5.372;2023-01-16T01:23:43;7.40;99.90
73277;DHT22;61501;43.316;5.372;2023-01-16T01:26:12;7.40;99.90
73277;DHT22;61501;43.316;5.372;2023-01-16T01:28:38;7.50;99.90
73277;DHT22;61501;43.316;5.372;2023-01-16T01:31:05;7.50;99.90
73277;DHT22;61501;43.316;5.372;2023-01-16T01:33:32;7.50;99.90
73277;DHT22;61501;43.316;5.372;2023-01-16T01:35:57;7.50;99.90
73277;DHT22;61501;43.316;5.372;2023-01-16T01:38:23;7.40;99.90
73277;DHT22;61501;43.316;5.372;2023-01-16T01:40:49;7.40;99.90
73277;DHT22;61501;43.316;5.372;2023-01-16T01:43:15;7.40;99.90
73277;DHT22;61501;43.316;5.372;2023-01-16T01:45:45;7.40;99.90
73277;DHT22;61501;43.316;5.372;2023-01-16T01:48:16;7.40;99.90
73277;DHT22;61501;43.316;5.372;2023-01-16T01:50:57;7.40;99.90
73277;DHT22;61501;43.316;5.372;2023-01-16T01:53:29;7.40;99.90
73277;DHT22;61501;43.316;5.372;2023-01-16T01:55:59;7.40;99.90
73277;DHT22;61501;43.316;5.372;2023-01-16T01:58:26;7.40;99.90
73277;DHT22;61501;43.316;5.372;2023-01-16T02:00:56;7.50;99.90
73277;DHT22;61501;43.316;5.372;2023-01-16T02:03:30;7.50;99.90
73277;DHT22;61501;43.316;5.372;2023-01-16T02:06:00;7.50;99.90
73277;DHT22;61501;43.316;5.372;2023-01-16T02:08:30;7.50;99.90
73277;DHT22;61501;43.316;5.372;2023-01-16T02:11:10;7.50;99.90
73277;DHT22;61501;43.316;5.372;2023-01-16T02:13:53;7.60;99.90
73277;DHT22;61501;43.316;5.372;2023-01-16T02:16:19;7.60;99.90
73277;DHT22;61501;43.316;5.372;2023-01-16T02:19:04;7.60;99.90
73277;DHT22;61501;43.316;5.372;2023-01-16T02:38:25;7.70;99.90
73277;DHT22;61501;43.316;5.372;2023-01-16T02:43:51;7.70;99.90
73277;DHT22;61501;43.316;5.372;2023-01-16T02:46:21;7.70;99.90
73277;DHT22;61501;43.316;5.372;2023-01-16T02:54:00;7.70;99.90
73277;DHT22;61501;43.316;5.372;2023-01-16T02:56:39;7.60;99.90
73277;DHT22;61501;43.316;5.372;2023-01-16T02:59:09;7.70;99.90
73277;DHT22;61501;43.316;5.372;2023-01-16T03:01:36;7.70;99.90
73277;DHT22;61501;43.316;5.372;2023-01-16T03:04:42;7.70;99.90
73277;DHT22;61501;43.316;5.372;2023-01-16T03:19:15;7.70;99.90
73277;DHT22;61501;43.316;5.372;2023-01-16T03:22:10;7.70;99.90
73277;DHT22;61501;43.316;5.372;2023-01-16T03:25:02;7.60;99.90
73277;DHT22;61501;43.316;5.372;2023-01-16T03:30:31;7.60;99.90
73277;DHT22;61501;43.316;5.372;2023-01-16T03:33:12;7.60;99.90
73277;DHT22;61501;43.316;5.372;2023-01-16T03:35:56;7.60;99.90
73277;DHT22;61501;43.316;5.372;2023-01-16T03:38:24;7.60;99.90
73277;DHT22;61501;43.316;5.372;2023-01-16T03:40:52;7.70;99.90
73277;DHT22;61501;43.316;5.372;2023-01-16T03:43:30;7.70;99.90
73277;DHT22;61501;43.316;5.372;2023-01-16T03:46:11;7.60;99.90
73277;DHT22;61501;43.316;5.372;2023-01-16T03:51:09;7.70;99.90
73277;DHT22;61501;43.316;5.372;2023-01-16T03:53:45;7.70;99.90
73277;DHT22;61501;43.316;5.372;2023-01-16T03:56:23;7.70;99.90
73277;DHT22;61501;43.316;5.372;2023-01-16T03:58:53;7.70;99.90
73277;DHT22;61501;43.316;5.372;2023-01-16T04:09:46;7.60;99.90
73277;DHT22;61501;43.316;5.372;2023-01-16T04:12:15;7.50;99.90
73277;DHT22;61501;43.316;5.372;2023-01-16T04:14:48;7.50;99.90
73277;DHT22;61501;43.316;5.372;2023-01-16T04:17:15;7.50;99.90
73277;DHT22;61501;43.316;5.372;2023-01-16T04:19:42;7.50;99.90
73277;DHT22;61501;43.316;5.372;2023-01-16T04:22:18;7.50;99.90
73277;DHT22;61501;43.316;5.372;2023-01-16T04:24:45;7.50;99.90
73277;DHT22;61501;43.316;5.372;2023-01-16T04:27:12;7.50;99.90
73277;DHT22;61501;43.316;5.372;2023-01-16T04:29:37;7.50;99.90
73277;DHT22;61501;43.316;5.372;2023-01-16T04:32:03;7.40;99.90
73277;DHT22;61501;43.316;5.372;2023-01-16T04:34:29;7.40;99.90
73277;DHT22;61501;43.316;5.372;2023-01-16T04:36:54;7.40;99.90
73277;DHT22;61501;43.316;5.372;2023-01-16T04:39:20;7.40;99.90
73277;DHT22;61501;43.316;5.372;2023-01-16T04:41:46;7.40;99.90
73277;DHT22;61501;43.316;5.372;2023-01-16T04:44:16;7.30;99.90
73277;DHT22;61501;43.316;5.372;2023-01-16T04:46:42;7.30;99.90
73277;DHT22;61501;43.316;5.372;2023-01-16T04:49:07;7.20;99.90
73277;DHT22;61501;43.316;5.372;2023-01-16T04:51:34;7.30;99.90
73277;DHT22;61501;43.316;5.372;2023-01-16T04:54:00;7.30;99.90
73277;DHT22;61501;43.316;5.372;2023-01-16T04:56:27;7.40;99.90
73277;DHT22;61501;43.316;5.372;2023-01-16T04:58:53;7.40;99.90
73277;DHT22;61501;43.316;5.372;2023-01-16T05:01:19;7.40;99.90
73277;DHT22;61501;43.316;5.372;2023-01-16T05:03:45;7.40;99.90
73277;DHT22;61501;43.316;5.372;2023-01-16T05:06:10;7.30;99.90
73277;DHT22;61501;43.316;5.372;2023-01-16T05:08:36;7.40;99.90
73277;DHT22;61501;43.316;5.372;2023-01-16T05:11:02;7.40;99.90
73277;DHT22;61501;43.316;5.372;2023-01-16T05:13:28;7.40;99.90
73277;DHT22;61501;43.316;5.372;2023-01-16T05:15:54;7.40;99.90
73277;DHT22;61501;43.316;5.372;2023-01-16T05:18:20;7.40;99.90
73277;DHT22;61501;43.316;5.372;2023-01-16T05:20:46;7.40;99.90
73277;DHT22;61501;43.316;5.372;2023-01-16T05:23:12;7.40;99.90
73277;DHT22;61501;43.316;5.372;2023-01-16T05:25:38;7.50;99.90
73277;DHT22;61501;43.316;5.372;2023-01-16T05:28:04;7.50;99.90
73277;DHT22;61501;43.316;5.372;2023-01-16T05:30:30;7.50;99.90
73277;DHT22;61501;43.316;5.372;2023-01-16T05:32:56;7.50;99.90
73277;DHT22;61501;43.316;5.372;2023-01-16T05:35:22;7.50;99.90
73277;DHT22;61501;43.316;5.372;2023-01-16T05:37:48;7.50;99.90
73277;DHT22;61501;43.316;5.372;2023-01-16T05:40:14;7.50;99.90
73277;DHT22;61501;43.316;5.372;2023-01-16T05:42:42;7.50;99.90
73277;DHT22;61501;43.316;5.372;2023-01-16T05:45:08;7.60;99.90
73277;DHT22;61501;43.316;5.372;2023-01-16T05:47:34;7.60;99.90
73277;DHT22;61501;43.316;5.372;2023-01-16T05:50:00;7.70;99.90
73277;DHT22;61501;43.316;5.372;2023-01-16T05:52:26;7.70;99.90
73277;DHT22;61501;43.316;5.372;2023-01-16T05:54:52;7.70;99.90
73277;DHT22;61501;43.316;5.372;2023-01-16T05:57:18;7.70;99.90
73277;DHT22;61501;43.316;5.372;2023-01-16T05:59:48;7.70;99.90
73277;DHT22;61501;43.316;5.372;2023-01-16T06:02:14;7.60;99.90
73277;DHT22;61501;43.316;5.372;2023-01-16T06:04:39;7.70;99.90
73277;DHT22;61501;43.316;5.372;2023-01-16T06:07:05;7.70;99.90
73277;DHT22;61501;43.316;5.372;2023-01-16T06:09:31;7.70;99.90
73277;DHT22;61501;43.316;5.372;2023-01-16T06:11:56;7.60;99.90
73277;DHT22;61501;43.316;5.372;2023-01-16T06:14:22;7.60;99.90
73277;DHT22;61501;43.316;5.372;2023-01-16T06:16:48;7.60;99.90
73277;DHT22;61501;43.316;5.372;2023-01-16T06:19:13;7.60;99.90
73277;DHT22;61501;43.316;5.372;2023-01-16T06:21:39;7.70;99.90
73277;DHT22;61501;43.316;5.372;2023-01-16T06:24:05;7.70;99.90
73277;DHT22;61501;43.316;5.372;2023-01-16T06:26:30;7.70;99.90
73277;DHT22;61501;43.316;5.372;2023-01-16T06:28:56;7.70;99.90
73277;DHT22;61501;43.316;5.372;2023-01-16T06:31:23;7.80;99.90
73277;DHT22;61501;43.316;5.372;2023-01-16T06:33:49;7.80;99.90
73277;DHT22;61501;43.316;5.372;2023-01-16T06:36:14;7.90;99.90
73277;DHT22;61501;43.316;5.372;2023-01-16T06:38:40;8.10;99.90
73277;DHT22;61501;43.316;5.372;2023-01-16T06:41:05;8.50;99.90
73277;DHT22;61501;43.316;5.372;2023-01-16T06:43:31;9.10;99.90
73277;DHT22;61501;43.316;5.372;2023-01-16T06:45:57;9.90;99.90
73277;DHT22;61501;43.316;5.372;2023-01-16T06:48:23;10.40;99.90
73277;DHT22;61501;43.316;5.372;2023-01-16T06:50:49;10.80;99.90
73277;DHT22;61501;43.316;5.372;2023-01-16T06:53:14;10.90;99.90
73277;DHT22;61501;43.316;5.372;2023-01-16T06:55:41;10.80;99.90
73277;DHT22;61501;43.316;5.372;2023-01-16T06:58:07;10.90;99.90
73277;DHT22;61501;43.316;5.372;2023-01-16T07:00:33;10.90;99.90
73277;DHT22;61501;43.316;5.372;2023-01-16T07:03:00;11.00;99.90
73277;DHT22;61501;43.316;5.372;2023-01-16T07:05:28;11.00;99.90
73277;DHT22;61501;43.316;5.372;2023-01-16T07:07:54;11.00;99.90
73277;DHT22;61501;43.316;5.372;2023-01-16T07:10:20;11.00;99.90
73277;DHT22;61501;43.316;5.372;2023-01-16T07:12:47;11.00;99.90
73277;DHT22;61501;43.316;5.372;2023-01-16T07:15:13;11.10;99.90
73277;DHT22;61501;43.316;5.372;2023-01-16T07:17:57;11.20;99.90
73277;DHT22;61501;43.316;5.372;2023-01-16T07:20:43;11.20;99.90
73277;DHT22;61501;43.316;5.372;2023-01-16T07:23:32;11.20;99.90
73277;DHT22;61501;43.316;5.372;2023-01-16T07:26:00;11.30;99.90
73277;DHT22;61501;43.316;5.372;2023-01-16T07:28:27;11.30;99.90
73277;DHT22;61501;43.316;5.372;2023-01-16T07:30:54;11.20;99.90
73277;DHT22;61501;43.316;5.372;2023-01-16T07:33:21;11.30;99.90
73277;DHT22;61501;43.316;5.372;2023-01-16T07:35:46;11.30;99.90
73277;DHT22;61501;43.316;5.372;2023-01-16T07:38:12;11.30;99.90
73277;DHT22;61501;43.316;5.372;2023-01-16T07:40:38;11.30;99.90
73277;DHT22;61501;43.316;5.372;2023-01-16T07:43:04;11.30;99.90
73277;DHT22;61501;43.316;5.372;2023-01-16T07:45:30;11.30;99.90
73277;DHT22;61501;43.316;5.372;2023-01-16T07:47:55;11.40;99.90
73277;DHT22;61501;43.316;5.372;2023-01-16T07:50:21;11.40;99.90
73277;DHT22;61501;43.316;5.372;2023-01-16T07:52:47;11.30;99.90
73277;DHT22;61501;43.316;5.372;2023-01-16T07:55:13;11.40;99.90
73277;DHT22;61501;43.316;5.372;2023-01-16T07:57:39;11.40;99.90
73277;DHT22;61501;43.316;5.372;2023-01-16T08:00:07;11.40;99.90
73277;DHT22;61501;43.316;5.372;2023-01-16T08:02:33;11.40;99.90
73277;DHT22;61501;43.316;5.372;2023-01-16T08:04:58;11.30;99.90
73277;DHT22;61501;43.316;5.372;2023-01-16T08:07:24;11.30;99.90
73277;DHT22;61501;43.316;5.372;2023-01-16T08:09:49;11.40;99.90
73277;DHT22;61501;43.316;5.372;2023-01-16T08:12:15;11.30;99.90
73277;DHT22;61501;43.316;5.372;2023-01-16T08:14:41;11.40;99.90
73277;DHT22;61501;43.316;5.372;2023-01-16T08:17:07;11.60;99.90
73277;DHT22;61501;43.316;5.372;2023-01-16T08:19:32;11.60;99.90
73277;DHT22;61501;43.316;5.372;2023-01-16T08:21:58;11.60;99.90
73277;DHT22;61501;43.316;5.372;2023-01-16T08:24:24;11.70;99.90
73277;DHT22;61501;43.316;5.372;2023-01-16T08:26:51;11.70;99.90
73277;DHT22;61501;43.316;5.372;2023-01-16T08:29:17;11.80;99.90
73277;DHT22;61501;43.316;5.372;2023-01-16T08:31:43;11.80;99.90
73277;DHT22;61501;43.316;5.372;2023-01-16T08:34:09;11.90;99.90
73277;DHT22;61501;43.316;5.372;2023-01-16T08:36:35;11.90;99.90
73277;DHT22;61501;43.316;5.372;2023-01-16T08:39:01;12.00;99.90
73277;DHT22;61501;43.316;5.372;2023-01-16T08:41:27;12.00;99.90
73277;DHT22;61501;43.316;5.372;2023-01-16T08:44:11;12.10;99.90
73277;DHT22;61501;43.316;5.372;2023-01-16T08:47:03;12.10;99.90
73277;DHT22;61501;43.316;5.372;2023-01-16T08:49:48;12.10;99.90
73277;DHT22;61501;43.316;5.372;2023-01-16T08:52:34;12.00;99.90
73277;DHT22;61501;43.316;5.372;2023-01-16T08:55:02;12.00;99.90
73277;DHT22;61501;43.316;5.372;2023-01-16T08:57:28;12.00;99.90
73277;DHT22;61501;43.316;5.372;2023-01-16T08:59:54;12.00;99.90
73277;DHT22;61501;43.316;5.372;2023-01-16T09:02:20;12.00;99.90
73277;DHT22;61501;43.316;5.372;2023-01-16T09:04:46;12.00;99.90
73277;DHT22;61501;43.316;5.372;2023-01-16T09:07:14;12.00;98.10
73277;DHT22;61501;43.316;5.372;2023-01-16T09:09:39;12.00;99.90
73277;DHT22;61501;43.316;5.372;2023-01-16T09:12:12;12.00;99.90
73277;DHT22;61501;43.316;5.372;2023-01-16T09:14:56;12.00;99.00
73277;DHT22;61501;43.316;5.372;2023-01-16T09:17:23;12.00;99.90
73277;DHT22;61501;43.316;5.372;2023-01-16T09:19:50;12.00;99.90
73277;DHT22;61501;43.316;5.372;2023-01-16T09:22:15;12.00;99.90
73277;DHT22;61501;43.316;5.372;2023-01-16T09:24:41;11.90;99.90
73277;DHT22;61501;43.316;5.372;2023-01-16T09:27:08;11.90;99.90
73277;DHT22;61501;43.316;5.372;2023-01-16T09:29:34;12.00;99.90
73277;DHT22;61501;43.316;5.372;2023-01-16T09:31:59;12.00;99.90
73277;DHT22;61501;43.316;5.372;2023-01-16T09:34:32;12.00;99.90
73277;DHT22;61501;43.316;5.372;2023-01-16T09:36:58;12.00;99.90
73277;DHT22;61501;43.316;5.372;2023-01-16T09:39:24;12.00;99.90
73277;DHT22;61501;43.316;5.372;2023-01-16T09:42:06;12.00;99.90
73277;DHT22;61501;43.316;5.372;2023-01-16T09:44:54;12.10;99.90
73277;DHT22;61501;43.316;5.372;2023-01-16T09:47:24;12.10;99.90
73277;DHT22;61501;43.316;5.372;2023-01-16T09:49:53;12.30;99.90
73277;DHT22;61501;43.316;5.372;2023-01-16T09:52:24;12.40;99.90
73277;DHT22;61501;43.316;5.372;2023-01-16T09:55:32;12.40;99.90
73277;DHT22;61501;43.316;5.372;2023-01-16T09:58:20;12.40;99.90
73277;DHT22;61501;43.316;5.372;2023-01-16T10:01:02;12.60;99.90
73277;DHT22;61501;43.316;5.372;2023-01-16T10:03:28;12.60;99.90
73277;DHT22;61501;43.316;5.372;2023-01-16T10:13:42;12.70;99.90
73277;DHT22;61501;43.316;5.372;2023-01-16T10:21:47;12.70;98.90
73277;DHT22;61501;43.316;5.372;2023-01-16T10:37:12;12.20;97.90
73277;DHT22;61501;43.316;5.372;2023-01-16T10:39:38;12.00;97.00
73277;DHT22;61501;43.316;5.372;2023-01-16T10:42:15;11.90;92.10
73277;DHT22;61501;43.316;5.372;2023-01-16T10:47:50;11.80;93.30
73277;DHT22;61501;43.316;5.372;2023-01-16T10:50:35;11.90;93.90
73277;DHT22;61501;43.316;5.372;2023-01-16T10:53:02;11.80;92.30
73277;DHT22;61501;43.316;5.372;2023-01-16T10:55:28;11.80;94.30
73277;DHT22;61501;43.316;5.372;2023-01-16T10:57:58;11.80;94.40
73277;DHT22;61501;43.316;5.372;2023-01-16T11:00:31;11.80;94.20
73277;DHT22;61501;43.316;5.372;2023-01-16T11:03:00;11.60;92.60
73277;DHT22;61501;43.316;5.372;2023-01-16T11:05:31;11.60;92.50
73277;DHT22;61501;43.316;5.372;2023-01-16T11:08:23;11.80;93.50
73277;DHT22;61501;43.316;5.372;2023-01-16T11:10:50;11.80;94.80
73277;DHT22;61501;43.316;5.372;2023-01-16T11:13:25;11.80;96.70
73277;DHT22;61501;43.316;5.372;2023-01-16T11:18:55;11.60;96.70
73277;DHT22;61501;43.316;5.372;2023-01-16T11:21:30;11.50;98.70
73277;DHT22;61501;43.316;5.372;2023-01-16T11:23:58;11.50;99.90
73277;DHT22;61501;43.316;5.372;2023-01-16T11:26:25;11.50;99.90
73277;DHT22;61501;43.316;5.372;2023-01-16T11:28:51;11.50;99.90
73277;DHT22;61501;43.316;5.372;2023-01-16T11:31:26;11.40;97.60
73277;DHT22;61501;43.316;5.372;2023-01-16T11:34:03;11.40;97.90
73277;DHT22;61501;43.316;5.372;2023-01-16T11:36:38;11.40;99.60
73277;DHT22;61501;43.316;5.372;2023-01-16T11:39:05;11.60;98.70
73277;DHT22;61501;43.316;5.372;2023-01-16T11:41:37;11.70;97.90
73277;DHT22;61501;43.316;5.372;2023-01-16T11:46:57;11.70;97.00
73277;DHT22;61501;43.316;5.372;2023-01-16T11:49:50;11.70;98.50
73277;DHT22;61501;43.316;5.372;2023-01-16T11:52:18;11.60;98.00
73277;DHT22;61501;43.316;5.372;2023-01-16T11:54:56;11.60;96.20
73277;DHT22;61501;43.316;5.372;2023-01-16T12:02:51;11.60;97.70
73277;DHT22;61501;43.316;5.372;2023-01-16T12:11:35;11.70;95.60
73277;DHT22;61501;43.316;5.372;2023-01-16T12:14:17;11.70;94.60
73277;DHT22;61501;43.316;5.372;2023-01-16T12:17:11;11.70;95.70
73277;DHT22;61501;43.316;5.372;2023-01-16T12:39:17;13.40;89.60
73277;DHT22;61501;43.316;5.372;2023-01-16T12:45:12;12.40;93.50
73277;DHT22;61501;43.316;5.372;2023-01-16T12:53:28;13.70;88.00
73277;DHT22;61501;43.316;5.372;2023-01-16T12:58:47;13.30;93.20
73277;DHT22;61501;43.316;5.372;2023-01-16T13:01:30;12.80;93.90
73277;DHT22;61501;43.316;5.372;2023-01-16T13:04:25;13.30;93.00
73277;DHT22;61501;43.316;5.372;2023-01-16T13:06:56;13.80;92.20
73277;DHT22;61501;43.316;5.372;2023-01-16T13:15:05;14.00;89.10
73277;DHT22;61501;43.316;5.372;2023-01-16T13:17:58;13.30;92.70
73277;DHT22;61501;43.316;5.372;2023-01-16T13:20:27;12.50;95.90
73277;DHT22;61501;43.316;5.372;2023-01-16T13:23:09;12.40;92.20
73277;DHT22;61501;43.316;5.372;2023-01-16T13:25:40;12.50;93.90
73277;DHT22;61501;43.316;5.372;2023-01-16T13:30:58;12.80;92.10
73277;DHT22;61501;43.316;5.372;2023-01-16T13:33:30;12.50;94.50
73277;DHT22;61501;43.316;5.372;2023-01-16T13:36:06;12.90;92.60
73277;DHT22;61501;43.316;5.372;2023-01-16T13:39:06;12.80;93.20
73277;DHT22;61501;43.316;5.372;2023-01-16T13:41:43;12.60;94.20
73277;DHT22;61501;43.316;5.372;2023-01-16T13:44:33;12.10;93.40
73277;DHT22;61501;43.316;5.372;2023-01-16T13:47:25;12.10;94.20
73277;DHT22;61501;43.316;5.372;2023-01-16T13:50:05;12.20;94.80
73277;DHT22;61501;43.316;5.372;2023-01-16T13:52:31;12.10;93.80
73277;DHT22;61501;43.316;5.372;2023-01-16T13:54:58;11.90;95.40
73277;DHT22;61501;43.316;5.372;2023-01-16T13:57:26;11.80;97.50
73277;DHT22;61501;43.316;5.372;2023-01-16T13:59:55;11.70;97.10
73277;DHT22;61501;43.316;5.372;2023-01-16T14:15:54;15.10;82.70
73277;DHT22;61501;43.316;5.372;2023-01-16T14:21:20;14.50;81.70
73277;DHT22;61501;43.316;5.372;2023-01-16T14:23:49;14.30;81.80
73277;DHT22;61501;43.316;5.372;2023-01-16T14:29:26;13.90;85.40
73277;DHT22;61501;43.316;5.372;2023-01-16T14:35:00;13.30;89.60
73277;DHT22;61501;43.316;5.372;2023-01-16T14:37:33;12.70;91.40
73277;DHT22;61501;43.316;5.372;2023-01-16T14:42:51;13.80;92.20
73277;DHT22;61501;43.316;5.372;2023-01-16T14:45:38;13.90;92.20
73277;DHT22;61501;43.316;5.372;2023-01-16T14:56:57;12.10;97.70
73277;DHT22;61501;43.316;5.372;2023-01-16T14:59:32;12.10;96.20
73277;DHT22;61501;43.316;5.372;2023-01-16T15:02:17;12.00;96.30
73277;DHT22;61501;43.316;5.372;2023-01-16T15:05:15;11.90;96.80
73277;DHT22;61501;43.316;5.372;2023-01-16T15:07:56;11.90;94.40
73277;DHT22;61501;43.316;5.372;2023-01-16T15:10:34;11.90;93.80
73277;DHT22;61501;43.316;5.372;2023-01-16T15:16:03;11.80;91.50
73277;DHT22;61501;43.316;5.372;2023-01-16T15:18:30;11.70;91.80
73277;DHT22;61501;43.316;5.372;2023-01-16T15:21:19;11.60;90.40
73277;DHT22;61501;43.316;5.372;2023-01-16T15:24:05;11.60;92.90
73277;DHT22;61501;43.316;5.372;2023-01-16T15:26:51;11.50;93.80
73277;DHT22;61501;43.316;5.372;2023-01-16T15:32:13;11.30;94.70
73277;DHT22;61501;43.316;5.372;2023-01-16T15:34:43;11.30;94.00
73277;DHT22;61501;43.316;5.372;2023-01-16T15:37:22;11.30;94.30
73277;DHT22;61501;43.316;5.372;2023-01-16T15:39:48;11.30;95.60
73277;DHT22;61501;43.316;5.372;2023-01-16T15:42:22;11.30;95.90
73277;DHT22;61501;43.316;5.372;2023-01-16T15:45:21;11.30;95.10
73277;DHT22;61501;43.316;5.372;2023-01-16T15:53:09;11.10;96.30
73277;DHT22;61501;43.316;5.372;2023-01-16T15:55:41;11.00;95.90
73277;DHT22;61501;43.316;5.372;2023-01-16T15:58:34;11.00;96.70
73277;DHT22;61501;43.316;5.372;2023-01-16T16:01:04;11.00;95.80
73277;DHT22;61501;43.316;5.372;2023-01-16T16:03:39;10.90;95.80
73277;DHT22;61501;43.316;5.372;2023-01-16T16:06:08;11.00;97.80
73277;DHT22;61501;43.316;5.372;2023-01-16T16:08:42;11.00;97.30
73277;DHT22;61501;43.316;5.372;2023-01-16T16:11:19;10.90;97.00
73277;DHT22;61501;43.316;5.372;2023-01-16T16:14:03;10.90;97.60
73277;DHT22;61501;43.316;5.372;2023-01-16T16:17:00;10.90;98.30
73277;DHT22;61501;43.316;5.372;2023-01-16T16:19:44;10.90;99.10
73277;DHT22;61501;43.316;5.372;2023-01-16T16:22:11;10.80;97.50
73277;DHT22;61501;43.316;5.372;2023-01-16T16:24:55;10.80;97.10
73277;DHT22;61501;43.316;5.372;2023-01-16T16:27:20;10.80;96.60
73277;DHT22;61501;43.316;5.372;2023-01-16T16:29:51;10.80;96.80
73277;DHT22;61501;43.316;5.372;2023-01-16T16:32:18;10.80;96.60
73277;DHT22;61501;43.316;5.372;2023-01-16T16:34:55;10.80;97.20
73277;DHT22;61501;43.316;5.372;2023-01-16T16:37:21;10.70;95.60
73277;DHT22;61501;43.316;5.372;2023-01-16T16:40:15;10.70;95.40
73277;DHT22;61501;43.316;5.372;2023-01-16T16:42:48;10.70;96.20
73277;DHT22;61501;43.316;5.372;2023-01-16T16:47:43;10.70;95.60
73277;DHT22;61501;43.316;5.372;2023-01-16T16:53:27;10.70;96.40
73277;DHT22;61501;43.316;5.372;2023-01-16T16:55:52;10.70;96.20
73277;DHT22;61501;43.316;5.372;2023-01-16T16:58:23;10.70;95.80
73277;DHT22;61501;43.316;5.372;2023-01-16T17:00:50;10.70;95.50
73277;DHT22;61501;43.316;5.372;2023-01-16T17:03:25;10.70;95.90
73277;DHT22;61501;43.316;5.372;2023-01-16T17:05:53;10.70;95.20
73277;DHT22;61501;43.316;5.372;2023-01-16T17:08:26;10.70;95.80
73277;DHT22;61501;43.316;5.372;2023-01-16T17:10:56;10.60;95.40
73277;DHT22;61501;43.316;5.372;2023-01-16T17:13:23;10.60;95.10
73277;DHT22;61501;43.316;5.372;2023-01-16T17:15:54;10.60;96.70
73277;DHT22;61501;43.316;5.372;2023-01-16T17:18:25;10.60;94.50
73277;DHT22;61501;43.316;5.372;2023-01-16T17:20:51;10.60;95.90
73277;DHT22;61501;43.316;5.372;2023-01-16T17:23:20;10.60;94.90
73277;DHT22;61501;43.316;5.372;2023-01-16T17:25:47;10.60;95.40
73277;DHT22;61501;43.316;5.372;2023-01-16T17:28:13;10.60;95.80
73277;DHT22;61501;43.316;5.372;2023-01-16T17:30:40;10.50;96.00
73277;DHT22;61501;43.316;5.372;2023-01-16T17:33:11;10.50;94.70
73277;DHT22;61501;43.316;5.372;2023-01-16T17:35:39;10.50;96.10
73277;DHT22;61501;43.316;5.372;2023-01-16T17:38:10;10.50;96.50
73277;DHT22;61501;43.316;5.372;2023-01-16T17:40:37;10.50;95.60
73277;DHT22;61501;43.316;5.372;2023-01-16T17:43:03;10.50;95.70
73277;DHT22;61501;43.316;5.372;2023-01-16T17:45:47;10.40;96.40
73277;DHT22;61501;43.316;5.372;2023-01-16T17:48:21;10.40;97.30
73277;DHT22;61501;43.316;5.372;2023-01-16T17:50:47;10.40;96.90
73277;DHT22;61501;43.316;5.372;2023-01-16T17:53:16;10.40;93.50
73277;DHT22;61501;43.316;5.372;2023-01-16T17:55:44;10.40;95.00
73277;DHT22;61501;43.316;5.372;2023-01-16T17:58:21;10.40;95.40
73277;DHT22;61501;43.316;5.372;2023-01-16T18:00:59;10.40;94.70
73277;DHT22;61501;43.316;5.372;2023-01-16T18:03:25;10.30;93.60
73277;DHT22;61501;43.316;5.372;2023-01-16T18:05:50;10.30;94.50
73277;DHT22;61501;43.316;5.372;2023-01-16T18:08:17;10.40;95.10
73277;DHT22;61501;43.316;5.372;2023-01-16T18:10:43;10.40;95.30
73277;DHT22;61501;43.316;5.372;2023-01-16T18:13:09;10.30;94.00
73277;DHT22;61501;43.316;5.372;2023-01-16T18:15:54;10.30;94.90
73277;DHT22;61501;43.316;5.372;2023-01-16T18:18:38;10.30;95.50
73277;DHT22;61501;43.316;5.372;2023-01-16T18:21:11;10.30;96.10
73277;DHT22;61501;43.316;5.372;2023-01-16T18:23:56;10.30;96.10
73277;DHT22;61501;43.316;5.372;2023-01-16T18:26:22;10.30;95.00
73277;DHT22;61501;43.316;5.372;2023-01-16T18:28:48;10.30;94.00
73277;DHT22;61501;43.316;5.372;2023-01-16T18:31:16;10.20;94.40
73277;DHT22;61501;43.316;5.372;2023-01-16T18:33:42;10.20;94.10
73277;DHT22;61501;43.316;5.372;2023-01-16T18:36:09;10.10;94.60
73277;DHT22;61501;43.316;5.372;2023-01-16T18:38:35;10.10;94.00
73277;DHT22;61501;43.316;5.372;2023-01-16T18:41:19;10.10;95.40
73277;DHT22;61501;43.316;5.372;2023-01-16T18:44:03;10.10;96.00
73277;DHT22;61501;43.316;5.372;2023-01-16T18:46:47;10.00;96.10
73277;DHT22;61501;43.316;5.372;2023-01-16T18:49:31;10.00;96.20
73277;DHT22;61501;43.316;5.372;2023-01-16T18:52:17;10.00;96.40
73277;DHT22;61501;43.316;5.372;2023-01-16T18:55:03;10.00;96.30
73277;DHT22;61501;43.316;5.372;2023-01-16T18:57:48;10.00;96.80
73277;DHT22;61501;43.316;5.372;2023-01-16T19:00:32;9.90;96.50
73277;DHT22;61501;43.316;5.372;2023-01-16T19:03:16;9.90;96.00
73277;DHT22;61501;43.316;5.372;2023-01-16T19:05:43;9.80;96.90
73277;DHT22;61501;43.316;5.372;2023-01-16T19:08:10;9.80;96.90
73277;DHT22;61501;43.316;5.372;2023-01-16T19:10:40;9.80;96.90